sensor_id;sensor_type;location;lat;lon;timestamp;pressure;altitude;pressure_sealevel;temperature;humidity
56689;BME280;42565;53.342;-1.534;2023-06-04T00:02:04;100007.00;;;13.89;43.98
56689;BME280;42565;53.342;-1.534;2023-06-04T00:04:32;100003.81;;;13.95;44.83
56689;BME280;42565;53.342;-1.534;2023-06-04T00:06:59;100004.20;;;13.69;44.27
56689;BME280;42565;53.342;-1.534;2023-06-04T00:09:26;100007.41;;;13.86;44.52
56689;BME280;42565;53.342;-1.534;2023-06-04T00:11:53;100010.99;;;13.58;44.85
56689;BME280;42565;53.342;-1.534;2023-06-04T00:14:19;100013.86;;;13.94;44.91
56689;BME280;42565;53.342;-1.534;2023-06-04T00:16:46;100013.50;;;13.13;45.20
56689;BME280;42565;53.342;-1.534;2023-06-04T00:19:14;100013.43;;;13.47;45.13
56689;BME280;42565;53.342;-1.534;2023-06-04T00:21:41;100010.72;;;14.03;44.75
56689;BME280;42565;53.342;-1.534;2023-06-04T00:24:08;100008.98;;;13.55;45.67
56689;BME280;42565;53.342;-1.534;2023-06-04T00:26:36;100006.10;;;13.27;46.02
56689;BME280;42565;53.342;-1.534;2023-06-04T00:29:02;100004.18;;;13.25;45.09
56689;BME280;42565;53.342;-1.534;2023-06-04T00:31:29;100000.25;;;13.70;45.20
56689;BME280;42565;53.342;-1.534;2023-06-04T00:33:56;100001.37;;;12.85;45.98
56689;BME280;42565;53.342;-1.534;2023-06-04T00:36:23;100001.99;;;13.67;45.29
56689;BME280;42565;53.342;-1.534;2023-06-04T00:38:50;100001.01;;;13.34;45.18
56689;BME280;42565;53.342;-1.534;2023-06-04T00:41:18;100002.11;;;12.59;45.09
56689;BME280;42565;53.342;-1.534;2023-06-04T00:43:46;99995.34;;;13.49;44.37
56689;BME280;42565;53.342;-1.534;2023-06-04T00:46:14;99996.11;;;13.72;44.25
56689;BME280;42565;53.342;-1.534;2023-06-04T00:48:41;99996.88;;;13.86;44.32
56689;BME280;42565;53.342;-1.534;2023-06-04T00:51:13;99992.33;;;12.51;44.02
56689;BME280;42565;53.342;-1.534;2023-06-04T00:53:40;99995.79;;;12.86;43.08
56689;BME280;42565;53.342;-1.534;2023-06-04T00:56:24;99993.75;;;13.07;41.48
56689;BME280;42565;53.342;-1.534;2023-06-04T00:59:00;99993.95;;;13.08;41.37
56689;BME280;42565;53.342;-1.534;2023-06-04T01:01:54;99994.33;;;13.35;40.84
56689;BME280;42565;53.342;-1.534;2023-06-04T01:04:27;99996.39;;;13.04;41.05
56689;BME280;42565;53.342;-1.534;2023-06-04T01:07:27;100001.65;;;13.83;40.73
56689;BME280;42565;53.342;-1.534;2023-06-04T01:09:55;100001.26;;;13.13;41.46
56689;BME280;42565;53.342;-1.534;2023-06-04T01:13:09;100003.43;;;13.35;41.49
56689;BME280;42565;53.342;-1.534;2023-06-04T01:15:40;100001.97;;;13.12;42.13
56689;BME280;42565;53.342;-1.534;2023-06-04T01:18:27;99997.98;;;13.86;41.51
56689;BME280;42565;53.342;-1.534;2023-06-04T01:21:11;99994.42;;;13.65;41.24
56689;BME280;42565;53.342;-1.534;2023-06-04T01:23:46;99995.30;;;13.89;40.91
56689;BME280;42565;53.342;-1.534;2023-06-04T01:26:36;99991.62;;;13.58;41.49
56689;BME280;42565;53.342;-1.534;2023-06-04T01:29:04;99991.11;;;13.49;42.03
56689;BME280;42565;53.342;-1.534;2023-06-04T01:31:33;99991.86;;;13.62;41.78
56689;BME280;42565;53.342;-1.534;2023-06-04T01:34:03;99992.59;;;13.77;42.20
56689;BME280;42565;53.342;-1.534;2023-06-04T01:36:30;99997.01;;;13.67;42.60
56689;BME280;42565;53.342;-1.534;2023-06-04T01:38:58;99994.38;;;13.62;42.65
56689;BME280;42565;53.342;-1.534;2023-06-04T01:41:25;99998.01;;;13.97;42.33
56689;BME280;42565;53.342;-1.534;2023-06-04T01:43:52;99998.85;;;15.08;42.30
56689;BME280;42565;53.342;-1.534;2023-06-04T01:46:19;99997.73;;;14.44;44.26
56689;BME280;42565;53.342;-1.534;2023-06-04T01:48:46;100002.18;;;13.86;46.64
56689;BME280;42565;53.342;-1.534;2023-06-04T01:51:13;100001.20;;;13.71;47.06
56689;BME280;42565;53.342;-1.534;2023-06-04T01:53:39;100000.27;;;13.92;47.95
56689;BME280;42565;53.342;-1.534;2023-06-04T01:56:06;99998.83;;;12.94;49.19
56689;BME280;42565;53.342;-1.534;2023-06-04T01:58:35;99998.99;;;13.36;50.16
56689;BME280;42565;53.342;-1.534;2023-06-04T02:01:03;100000.75;;;13.48;49.60
56689;BME280;42565;53.342;-1.534;2023-06-04T02:03:30;99999.70;;;13.64;50.22
56689;BME280;42565;53.342;-1.534;2023-06-04T02:05:56;100000.75;;;13.17;50.57
56689;BME280;42565;53.342;-1.534;2023-06-04T02:08:24;100000.68;;;13.67;49.75
56689;BME280;42565;53.342;-1.534;2023-06-04T02:10:51;99999.70;;;13.78;50.79
56689;BME280;42565;53.342;-1.534;2023-06-04T02:13:19;100002.06;;;13.36;51.78
56689;BME280;42565;53.342;-1.534;2023-06-04T02:15:46;100000.79;;;13.44;52.46
56689;BME280;42565;53.342;-1.534;2023-06-04T02:18:15;100003.21;;;13.17;52.74
56689;BME280;42565;53.342;-1.534;2023-06-04T02:20:42;100003.35;;;13.50;52.28
56689;BME280;42565;53.342;-1.534;2023-06-04T02:23:09;100001.64;;;13.16;52.93
56689;BME280;42565;53.342;-1.534;2023-06-04T02:25:37;100001.09;;;13.52;53.58
56689;BME280;42565;53.342;-1.534;2023-06-04T02:28:04;100000.32;;;12.88;54.20
56689;BME280;42565;53.342;-1.534;2023-06-04T02:30:31;100001.56;;;13.51;53.39
56689;BME280;42565;53.342;-1.534;2023-06-04T02:32:58;100001.37;;;13.43;53.74
56689;BME280;42565;53.342;-1.534;2023-06-04T02:35:26;100006.18;;;13.29;54.00
56689;BME280;42565;53.342;-1.534;2023-06-04T02:37:53;100005.75;;;13.83;54.36
56689;BME280;42565;53.342;-1.534;2023-06-04T02:40:21;100007.30;;;13.13;54.61
56689;BME280;42565;53.342;-1.534;2023-06-04T02:42:47;100005.44;;;13.50;54.14
56689;BME280;42565;53.342;-1.534;2023-06-04T02:45:14;100008.94;;;13.02;55.16
56689;BME280;42565;53.342;-1.534;2023-06-04T02:47:41;100009.09;;;13.40;54.33
56689;BME280;42565;53.342;-1.534;2023-06-04T02:50:08;100010.20;;;12.58;54.56
56689;BME280;42565;53.342;-1.534;2023-06-04T02:52:35;100015.22;;;13.07;54.23
56689;BME280;42565;53.342;-1.534;2023-06-04T02:55:03;100012.08;;;13.54;53.60
56689;BME280;42565;53.342;-1.534;2023-06-04T02:57:30;100015.47;;;13.69;53.65
56689;BME280;42565;53.342;-1.534;2023-06-04T02:59:58;100012.79;;;13.25;54.11
56689;BME280;42565;53.342;-1.534;2023-06-04T03:02:25;100011.25;;;12.72;55.50
56689;BME280;42565;53.342;-1.534;2023-06-04T03:04:52;100009.35;;;13.11;55.42
56689;BME280;42565;53.342;-1.534;2023-06-04T03:07:19;100007.78;;;13.05;55.25
56689;BME280;42565;53.342;-1.534;2023-06-04T03:09:46;100005.02;;;13.22;55.03
56689;BME280;42565;53.342;-1.534;2023-06-04T03:12:13;100003.62;;;13.24;55.21
56689;BME280;42565;53.342;-1.534;2023-06-04T03:14:40;99999.94;;;13.41;55.52
56689;BME280;42565;53.342;-1.534;2023-06-04T03:17:07;100000.58;;;12.61;56.18
56689;BME280;42565;53.342;-1.534;2023-06-04T03:19:35;99997.09;;;13.32;55.69
56689;BME280;42565;53.342;-1.534;2023-06-04T03:22:04;99998.71;;;13.19;56.18
56689;BME280;42565;53.342;-1.534;2023-06-04T03:24:33;99997.67;;;13.13;56.46
56689;BME280;42565;53.342;-1.534;2023-06-04T03:27:01;99998.01;;;13.01;56.80
56689;BME280;42565;53.342;-1.534;2023-06-04T03:29:28;99997.90;;;13.14;56.60
56689;BME280;42565;53.342;-1.534;2023-06-04T03:31:55;99998.10;;;13.34;56.99
56689;BME280;42565;53.342;-1.534;2023-06-04T03:34:22;99995.79;;;12.94;57.14
56689;BME280;42565;53.342;-1.534;2023-06-04T03:36:49;99998.44;;;13.16;56.72
56689;BME280;42565;53.342;-1.534;2023-06-04T03:39:16;99997.31;;;13.05;56.43
56689;BME280;42565;53.342;-1.534;2023-06-04T03:41:43;99998.77;;;13.20;56.65
56689;BME280;42565;53.342;-1.534;2023-06-04T03:44:12;99998.66;;;13.28;56.56
56689;BME280;42565;53.342;-1.534;2023-06-04T03:46:40;100002.01;;;13.28;55.92
56689;BME280;42565;53.342;-1.534;2023-06-04T03:49:08;100000.08;;;12.90;56.02
56689;BME280;42565;53.342;-1.534;2023-06-04T03:51:35;99999.95;;;13.55;55.60
56689;BME280;42565;53.342;-1.534;2023-06-04T03:54:02;100000.10;;;13.57;55.79
56689;BME280;42565;53.342;-1.534;2023-06-04T03:56:29;100002.61;;;13.60;55.02
56689;BME280;42565;53.342;-1.534;2023-06-04T03:58:56;100003.78;;;13.41;55.76
56689;BME280;42565;53.342;-1.534;2023-06-04T04:01:24;100004.05;;;13.61;54.93
56689;BME280;42565;53.342;-1.534;2023-06-04T04:03:51;99997.75;;;13.56;55.65
56689;BME280;42565;53.342;-1.534;2023-06-04T04:06:19;99996.53;;;13.62;55.59
56689;BME280;42565;53.342;-1.534;2023-06-04T04:08:46;99997.17;;;13.34;55.26
56689;BME280;42565;53.342;-1.534;2023-06-04T04:11:15;99998.30;;;13.23;55.54
56689;BME280;42565;53.342;-1.534;2023-06-04T04:13:44;99999.58;;;13.64;55.40
56689;BME280;42565;53.342;-1.534;2023-06-04T04:16:12;99999.09;;;13.22;55.40
56689;BME280;42565;53.342;-1.534;2023-06-04T04:18:41;99999.51;;;13.69;54.72
56689;BME280;42565;53.342;-1.534;2023-06-04T04:21:09;99998.01;;;13.03;55.31
56689;BME280;42565;53.342;-1.534;2023-06-04T04:23:37;100001.55;;;13.33;55.43
56689;BME280;42565;53.342;-1.534;2023-06-04T04:26:04;100004.53;;;13.41;55.16
56689;BME280;42565;53.342;-1.534;2023-06-04T04:28:31;100001.43;;;13.33;54.27
56689;BME280;42565;53.342;-1.534;2023-06-04T04:30:58;99999.53;;;13.35;54.04
56689;BME280;42565;53.342;-1.534;2023-06-04T04:33:25;99998.77;;;13.17;54.74
56689;BME280;42565;53.342;-1.534;2023-06-04T04:35:52;99999.73;;;13.33;54.45
56689;BME280;42565;53.342;-1.534;2023-06-04T04:38:19;100001.24;;;13.09;54.96
56689;BME280;42565;53.342;-1.534;2023-06-04T04:40:47;100002.91;;;12.89;55.75
56689;BME280;42565;53.342;-1.534;2023-06-04T04:43:14;100003.98;;;12.74;55.74
56689;BME280;42565;53.342;-1.534;2023-06-04T04:45:41;100005.70;;;13.29;55.13
56689;BME280;42565;53.342;-1.534;2023-06-04T04:48:08;100009.22;;;12.25;55.06
56689;BME280;42565;53.342;-1.534;2023-06-04T04:50:35;100007.41;;;12.98;54.61
56689;BME280;42565;53.342;-1.534;2023-06-04T04:53:02;100009.76;;;12.92;54.86
56689;BME280;42565;53.342;-1.534;2023-06-04T04:55:30;100010.68;;;12.80;55.09
56689;BME280;42565;53.342;-1.534;2023-06-04T04:57:56;100015.28;;;13.09;54.73
56689;BME280;42565;53.342;-1.534;2023-06-04T05:00:23;100018.29;;;12.73;54.86
56689;BME280;42565;53.342;-1.534;2023-06-04T05:02:50;100016.47;;;13.13;54.54
56689;BME280;42565;53.342;-1.534;2023-06-04T05:05:17;100015.92;;;13.22;53.28
56689;BME280;42565;53.342;-1.534;2023-06-04T05:07:44;100016.04;;;13.12;54.13
56689;BME280;42565;53.342;-1.534;2023-06-04T05:10:11;100016.17;;;12.97;53.95
56689;BME280;42565;53.342;-1.534;2023-06-04T05:12:38;100016.12;;;13.29;54.56
56689;BME280;42565;53.342;-1.534;2023-06-04T05:15:06;100018.20;;;12.87;54.19
56689;BME280;42565;53.342;-1.534;2023-06-04T05:17:33;100019.96;;;13.48;54.51
56689;BME280;42565;53.342;-1.534;2023-06-04T05:20:00;100020.09;;;13.21;54.60
56689;BME280;42565;53.342;-1.534;2023-06-04T05:22:28;100023.23;;;13.15;53.47
56689;BME280;42565;53.342;-1.534;2023-06-04T05:24:54;100023.28;;;13.08;53.85
56689;BME280;42565;53.342;-1.534;2023-06-04T05:27:22;100022.64;;;12.62;54.32
56689;BME280;42565;53.342;-1.534;2023-06-04T05:29:49;100023.90;;;12.97;54.33
56689;BME280;42565;53.342;-1.534;2023-06-04T05:32:16;100022.40;;;12.90;53.47
56689;BME280;42565;53.342;-1.534;2023-06-04T05:34:43;100022.87;;;13.06;53.68
56689;BME280;42565;53.342;-1.534;2023-06-04T05:37:09;100026.89;;;12.86;53.55
56689;BME280;42565;53.342;-1.534;2023-06-04T05:39:36;100026.67;;;13.30;52.82
56689;BME280;42565;53.342;-1.534;2023-06-04T05:42:04;100026.38;;;13.08;52.88
56689;BME280;42565;53.342;-1.534;2023-06-04T05:44:31;100021.78;;;12.87;53.60
56689;BME280;42565;53.342;-1.534;2023-06-04T05:46:58;100021.32;;;13.13;53.55
56689;BME280;42565;53.342;-1.534;2023-06-04T05:49:25;100019.43;;;13.10;52.79
56689;BME280;42565;53.342;-1.534;2023-06-04T05:51:51;100023.89;;;13.91;51.81
56689;BME280;42565;53.342;-1.534;2023-06-04T05:54:18;100025.44;;;13.62;52.42
56689;BME280;42565;53.342;-1.534;2023-06-04T05:56:45;100027.30;;;13.58;52.23
56689;BME280;42565;53.342;-1.534;2023-06-04T05:59:11;100025.34;;;13.24;52.34
56689;BME280;42565;53.342;-1.534;2023-06-04T06:01:38;100030.30;;;13.50;51.96
56689;BME280;42565;53.342;-1.534;2023-06-04T06:04:05;100032.20;;;12.97;52.50
56689;BME280;42565;53.342;-1.534;2023-06-04T06:06:33;100036.64;;;13.35;51.97
56689;BME280;42565;53.342;-1.534;2023-06-04T06:09:00;100034.93;;;13.49;52.45
56689;BME280;42565;53.342;-1.534;2023-06-04T06:11:27;100036.40;;;12.71;53.91
56689;BME280;42565;53.342;-1.534;2023-06-04T06:13:54;100035.51;;;13.01;52.82
56689;BME280;42565;53.342;-1.534;2023-06-04T06:16:21;100039.02;;;13.03;52.63
56689;BME280;42565;53.342;-1.534;2023-06-04T06:18:48;100041.49;;;13.10;53.47
56689;BME280;42565;53.342;-1.534;2023-06-04T06:21:15;100043.35;;;11.90;54.27
56689;BME280;42565;53.342;-1.534;2023-06-04T06:23:41;100041.21;;;13.21;53.16
56689;BME280;42565;53.342;-1.534;2023-06-04T06:26:08;100043.25;;;12.73;51.86
56689;BME280;42565;53.342;-1.534;2023-06-04T06:28:35;100042.26;;;13.40;52.17
56689;BME280;42565;53.342;-1.534;2023-06-04T06:31:03;100042.26;;;13.41;51.52
56689;BME280;42565;53.342;-1.534;2023-06-04T06:33:30;100041.94;;;13.64;51.21
56689;BME280;42565;53.342;-1.534;2023-06-04T06:35:58;100042.44;;;13.48;51.60
56689;BME280;42565;53.342;-1.534;2023-06-04T06:38:26;100037.66;;;14.10;51.00
56689;BME280;42565;53.342;-1.534;2023-06-04T06:40:53;100041.48;;;13.82;51.24
56689;BME280;42565;53.342;-1.534;2023-06-04T06:43:21;100039.33;;;14.07;50.32
56689;BME280;42565;53.342;-1.534;2023-06-04T06:45:48;100040.12;;;13.44;51.40
56689;BME280;42565;53.342;-1.534;2023-06-04T06:48:15;100036.41;;;12.94;52.01
56689;BME280;42565;53.342;-1.534;2023-06-04T06:50:42;100037.43;;;13.59;51.81
56689;BME280;42565;53.342;-1.534;2023-06-04T06:53:09;100037.33;;;13.42;51.48
56689;BME280;42565;53.342;-1.534;2023-06-04T06:55:36;100038.17;;;13.46;51.75
56689;BME280;42565;53.342;-1.534;2023-06-04T06:58:03;100038.44;;;13.95;50.76
56689;BME280;42565;53.342;-1.534;2023-06-04T07:00:30;100037.55;;;14.68;49.12
56689;BME280;42565;53.342;-1.534;2023-06-04T07:02:57;100039.35;;;14.69;48.67
56689;BME280;42565;53.342;-1.534;2023-06-04T07:05:24;100044.66;;;13.88;49.79
56689;BME280;42565;53.342;-1.534;2023-06-04T07:07:51;100044.35;;;14.75;48.30
56689;BME280;42565;53.342;-1.534;2023-06-04T07:10:18;100046.08;;;14.69;48.02
56689;BME280;42565;53.342;-1.534;2023-06-04T07:12:45;100046.16;;;14.87;47.32
56689;BME280;42565;53.342;-1.534;2023-06-04T07:15:11;100043.85;;;14.29;47.79
56689;BME280;42565;53.342;-1.534;2023-06-04T07:17:38;100040.84;;;14.43;48.17
56689;BME280;42565;53.342;-1.534;2023-06-04T07:20:06;100041.36;;;14.10;47.96
56689;BME280;42565;53.342;-1.534;2023-06-04T07:22:33;100045.53;;;13.93;48.02
56689;BME280;42565;53.342;-1.534;2023-06-04T07:25:02;100044.39;;;14.07;48.63
56689;BME280;42565;53.342;-1.534;2023-06-04T07:27:29;100042.14;;;14.37;48.27
56689;BME280;42565;53.342;-1.534;2023-06-04T07:29:56;100037.94;;;14.53;48.08
56689;BME280;42565;53.342;-1.534;2023-06-04T07:32:24;100040.68;;;14.89;48.60
56689;BME280;42565;53.342;-1.534;2023-06-04T07:34:50;100038.61;;;14.61;49.09
56689;BME280;42565;53.342;-1.534;2023-06-04T07:37:17;100035.94;;;15.27;48.80
56689;BME280;42565;53.342;-1.534;2023-06-04T07:39:45;100033.59;;;15.75;47.35
56689;BME280;42565;53.342;-1.534;2023-06-04T07:42:13;100039.82;;;15.71;46.55
56689;BME280;42565;53.342;-1.534;2023-06-04T07:44:40;100034.01;;;15.39;46.78
56689;BME280;42565;53.342;-1.534;2023-06-04T07:47:07;100039.50;;;15.40;46.48
56689;BME280;42565;53.342;-1.534;2023-06-04T07:49:33;100037.66;;;16.06;45.55
56689;BME280;42565;53.342;-1.534;2023-06-04T07:52:00;100044.70;;;15.80;44.88
56689;BME280;42565;53.342;-1.534;2023-06-04T07:54:27;100038.50;;;15.84;46.20
56689;BME280;42565;53.342;-1.534;2023-06-04T07:56:54;100039.23;;;15.41;46.09
56689;BME280;42565;53.342;-1.534;2023-06-04T07:59:21;100039.49;;;15.12;45.24
56689;BME280;42565;53.342;-1.534;2023-06-04T08:01:50;100048.75;;;14.35;48.63
56689;BME280;42565;53.342;-1.534;2023-06-04T08:04:17;100048.61;;;13.96;47.92
56689;BME280;42565;53.342;-1.534;2023-06-04T08:06:45;100047.44;;;14.88;48.08
56689;BME280;42565;53.342;-1.534;2023-06-04T08:09:12;100045.23;;;15.05;47.68
56689;BME280;42565;53.342;-1.534;2023-06-04T08:11:40;100047.55;;;14.35;49.23
56689;BME280;42565;53.342;-1.534;2023-06-04T08:14:08;100045.46;;;14.52;46.50
56689;BME280;42565;53.342;-1.534;2023-06-04T08:16:35;100045.65;;;14.78;48.52
56689;BME280;42565;53.342;-1.534;2023-06-04T08:19:02;100042.05;;;15.32;47.45
56689;BME280;42565;53.342;-1.534;2023-06-04T08:21:29;100043.43;;;15.39;46.18
56689;BME280;42565;53.342;-1.534;2023-06-04T08:23:56;100044.14;;;15.56;46.93
56689;BME280;42565;53.342;-1.534;2023-06-04T08:26:23;100049.47;;;14.76;46.43
56689;BME280;42565;53.342;-1.534;2023-06-04T08:28:50;100045.99;;;15.49;46.80
56689;BME280;42565;53.342;-1.534;2023-06-04T08:31:17;100045.04;;;15.20;46.90
56689;BME280;42565;53.342;-1.534;2023-06-04T08:33:45;100044.83;;;16.17;45.88
56689;BME280;42565;53.342;-1.534;2023-06-04T08:36:13;100041.85;;;16.27;45.85
56689;BME280;42565;53.342;-1.534;2023-06-04T08:38:40;100046.04;;;16.52;44.21
56689;BME280;42565;53.342;-1.534;2023-06-04T08:41:14;100042.90;;;15.88;43.48
56689;BME280;42565;53.342;-1.534;2023-06-04T08:43:42;100045.61;;;17.24;42.00
56689;BME280;42565;53.342;-1.534;2023-06-04T08:46:10;100042.94;;;16.61;42.10
56689;BME280;42565;53.342;-1.534;2023-06-04T08:48:38;100047.20;;;16.69;43.88
56689;BME280;42565;53.342;-1.534;2023-06-04T08:51:06;100051.69;;;15.75;44.07
56689;BME280;42565;53.342;-1.534;2023-06-04T08:53:34;100050.38;;;17.20;43.67
56689;BME280;42565;53.342;-1.534;2023-06-04T08:56:01;100043.83;;;16.53;43.32
56689;BME280;42565;53.342;-1.534;2023-06-04T08:58:31;100043.41;;;16.60;44.23
56689;BME280;42565;53.342;-1.534;2023-06-04T09:00:58;100043.42;;;17.11;44.63
56689;BME280;42565;53.342;-1.534;2023-06-04T09:03:26;100044.94;;;17.26;41.91
56689;BME280;42565;53.342;-1.534;2023-06-04T09:05:54;100044.06;;;17.35;43.37
56689;BME280;42565;53.342;-1.534;2023-06-04T09:08:23;100042.42;;;16.37;46.21
56689;BME280;42565;53.342;-1.534;2023-06-04T09:10:53;100047.13;;;16.32;45.55
56689;BME280;42565;53.342;-1.534;2023-06-04T09:13:23;100034.53;;;16.94;43.36
56689;BME280;42565;53.342;-1.534;2023-06-04T09:16:03;100040.45;;;17.94;43.10
56689;BME280;42565;53.342;-1.534;2023-06-04T09:18:31;100042.38;;;18.26;42.44
56689;BME280;42565;53.342;-1.534;2023-06-04T09:21:03;100042.61;;;18.33;40.65
56689;BME280;42565;53.342;-1.534;2023-06-04T09:23:31;100043.90;;;17.96;41.49
56689;BME280;42565;53.342;-1.534;2023-06-04T09:26:06;100047.15;;;18.84;41.01
56689;BME280;42565;53.342;-1.534;2023-06-04T09:28:34;100044.21;;;18.45;40.87
56689;BME280;42565;53.342;-1.534;2023-06-04T09:31:01;100043.77;;;18.61;40.76
56689;BME280;42565;53.342;-1.534;2023-06-04T09:33:28;100045.09;;;18.64;42.12
56689;BME280;42565;53.342;-1.534;2023-06-04T09:35:56;100037.82;;;18.25;40.98
56689;BME280;42565;53.342;-1.534;2023-06-04T09:38:23;100038.63;;;17.81;42.47
56689;BME280;42565;53.342;-1.534;2023-06-04T09:40:50;100038.87;;;18.57;41.86
56689;BME280;42565;53.342;-1.534;2023-06-04T09:43:22;100037.21;;;18.72;40.10
56689;BME280;42565;53.342;-1.534;2023-06-04T09:45:49;100034.40;;;18.26;41.54
56689;BME280;42565;53.342;-1.534;2023-06-04T09:48:20;100037.25;;;18.31;42.98
56689;BME280;42565;53.342;-1.534;2023-06-04T09:50:47;100044.36;;;18.69;44.15
56689;BME280;42565;53.342;-1.534;2023-06-04T09:53:15;100041.75;;;18.57;41.73
56689;BME280;42565;53.342;-1.534;2023-06-04T09:55:42;100045.24;;;18.75;40.53
56689;BME280;42565;53.342;-1.534;2023-06-04T09:58:11;100045.55;;;18.47;41.36
56689;BME280;42565;53.342;-1.534;2023-06-04T10:00:38;100039.81;;;18.56;40.70
56689;BME280;42565;53.342;-1.534;2023-06-04T10:03:09;100039.88;;;18.50;40.86
56689;BME280;42565;53.342;-1.534;2023-06-04T10:05:40;100037.91;;;18.83;40.45
56689;BME280;42565;53.342;-1.534;2023-06-04T10:08:09;100037.71;;;18.60;41.04
56689;BME280;42565;53.342;-1.534;2023-06-04T10:10:39;100038.78;;;18.87;41.32
56689;BME280;42565;53.342;-1.534;2023-06-04T10:13:09;100039.96;;;18.29;41.74
56689;BME280;42565;53.342;-1.534;2023-06-04T10:15:41;100042.52;;;18.31;43.44
56689;BME280;42565;53.342;-1.534;2023-06-04T10:18:10;100039.32;;;18.04;42.52
56689;BME280;42565;53.342;-1.534;2023-06-04T10:20:38;100037.45;;;19.21;42.33
56689;BME280;42565;53.342;-1.534;2023-06-04T10:23:06;100043.14;;;17.94;42.40
56689;BME280;42565;53.342;-1.534;2023-06-04T10:25:34;100044.41;;;18.97;42.42
56689;BME280;42565;53.342;-1.534;2023-06-04T10:28:03;100042.82;;;19.40;40.89
56689;BME280;42565;53.342;-1.534;2023-06-04T10:30:31;100045.27;;;19.49;40.78
56689;BME280;42565;53.342;-1.534;2023-06-04T10:32:58;100047.50;;;19.62;39.69
56689;BME280;42565;53.342;-1.534;2023-06-04T10:35:33;100045.53;;;19.07;41.21
56689;BME280;42565;53.342;-1.534;2023-06-04T10:38:06;100051.23;;;19.33;41.52
56689;BME280;42565;53.342;-1.534;2023-06-04T10:40:34;100053.41;;;18.94;42.25
56689;BME280;42565;53.342;-1.534;2023-06-04T10:43:05;100049.96;;;17.71;42.02
56689;BME280;42565;53.342;-1.534;2023-06-04T10:45:33;100051.46;;;17.65;45.31
56689;BME280;42565;53.342;-1.534;2023-06-04T10:48:01;100057.45;;;18.20;43.23
56689;BME280;42565;53.342;-1.534;2023-06-04T10:50:29;100054.81;;;17.90;43.21
56689;BME280;42565;53.342;-1.534;2023-06-04T10:52:56;100055.33;;;19.23;42.91
56689;BME280;42565;53.342;-1.534;2023-06-04T10:55:24;100058.16;;;19.15;40.77
56689;BME280;42565;53.342;-1.534;2023-06-04T10:57:52;100061.92;;;19.28;41.95
56689;BME280;42565;53.342;-1.534;2023-06-04T11:00:20;100063.34;;;19.35;40.21
56689;BME280;42565;53.342;-1.534;2023-06-04T11:02:52;100060.38;;;19.41;42.71
56689;BME280;42565;53.342;-1.534;2023-06-04T11:05:20;100064.10;;;20.21;39.37
56689;BME280;42565;53.342;-1.534;2023-06-04T11:07:48;100064.35;;;18.99;41.81
56689;BME280;42565;53.342;-1.534;2023-06-04T11:10:17;100064.17;;;19.88;40.89
56689;BME280;42565;53.342;-1.534;2023-06-04T11:12:46;100061.99;;;20.96;39.01
56689;BME280;42565;53.342;-1.534;2023-06-04T11:15:13;100060.65;;;20.72;37.52
56689;BME280;42565;53.342;-1.534;2023-06-04T11:17:56;100060.32;;;21.47;37.26
56689;BME280;42565;53.342;-1.534;2023-06-04T11:20:24;100062.48;;;20.82;37.85
56689;BME280;42565;53.342;-1.534;2023-06-04T11:22:54;100056.32;;;21.28;37.72
56689;BME280;42565;53.342;-1.534;2023-06-04T11:25:22;100065.08;;;20.06;37.97
56689;BME280;42565;53.342;-1.534;2023-06-04T11:27:51;100068.05;;;19.60;37.79
56689;BME280;42565;53.342;-1.534;2023-06-04T11:30:19;100070.90;;;19.40;41.00
56689;BME280;42565;53.342;-1.534;2023-06-04T11:32:46;100069.80;;;20.32;38.31
56689;BME280;42565;53.342;-1.534;2023-06-04T11:35:14;100064.93;;;19.46;37.74
56689;BME280;42565;53.342;-1.534;2023-06-04T11:37:42;100068.06;;;20.02;37.93
56689;BME280;42565;53.342;-1.534;2023-06-04T11:40:19;100060.04;;;19.58;39.62
56689;BME280;42565;53.342;-1.534;2023-06-04T11:42:47;100069.64;;;19.30;39.17
56689;BME280;42565;53.342;-1.534;2023-06-04T11:45:17;100067.32;;;19.45;39.23
56689;BME280;42565;53.342;-1.534;2023-06-04T11:47:45;100066.44;;;20.06;38.84
56689;BME280;42565;53.342;-1.534;2023-06-04T11:50:13;100063.65;;;19.57;39.01
56689;BME280;42565;53.342;-1.534;2023-06-04T11:52:41;100058.07;;;19.21;38.37
56689;BME280;42565;53.342;-1.534;2023-06-04T11:55:09;100065.77;;;18.31;41.03
56689;BME280;42565;53.342;-1.534;2023-06-04T11:57:37;100065.33;;;20.08;39.67
56689;BME280;42565;53.342;-1.534;2023-06-04T12:00:05;100072.34;;;20.13;38.66
56689;BME280;42565;53.342;-1.534;2023-06-04T12:02:34;100065.48;;;20.19;38.00
56689;BME280;42565;53.342;-1.534;2023-06-04T12:05:11;100067.90;;;19.92;39.71
56689;BME280;42565;53.342;-1.534;2023-06-04T12:07:38;100064.32;;;20.34;36.97
56689;BME280;42565;53.342;-1.534;2023-06-04T12:10:06;100066.85;;;20.42;38.36
56689;BME280;42565;53.342;-1.534;2023-06-04T12:12:34;100060.64;;;21.63;36.07
56689;BME280;42565;53.342;-1.534;2023-06-04T12:15:02;100069.08;;;21.13;36.70
56689;BME280;42565;53.342;-1.534;2023-06-04T12:17:29;100061.97;;;21.30;34.36
56689;BME280;42565;53.342;-1.534;2023-06-04T12:19:56;100063.77;;;21.31;35.84
56689;BME280;42565;53.342;-1.534;2023-06-04T12:22:24;100066.34;;;20.67;35.32
56689;BME280;42565;53.342;-1.534;2023-06-04T12:24:52;100064.32;;;20.72;36.20
56689;BME280;42565;53.342;-1.534;2023-06-04T12:27:21;100064.58;;;20.25;36.72
56689;BME280;42565;53.342;-1.534;2023-06-04T12:29:55;100058.11;;;20.38;37.36
56689;BME280;42565;53.342;-1.534;2023-06-04T12:32:23;100059.53;;;19.64;37.25
56689;BME280;42565;53.342;-1.534;2023-06-04T12:34:50;100053.87;;;19.43;38.83
56689;BME280;42565;53.342;-1.534;2023-06-04T12:37:18;100061.01;;;19.94;37.30
56689;BME280;42565;53.342;-1.534;2023-06-04T12:39:45;100055.39;;;19.93;39.34
56689;BME280;42565;53.342;-1.534;2023-06-04T12:42:12;100048.97;;;19.35;37.73
56689;BME280;42565;53.342;-1.534;2023-06-04T12:44:40;100055.63;;;20.75;37.23
56689;BME280;42565;53.342;-1.534;2023-06-04T12:47:08;100058.48;;;20.48;36.14